sensor_id;sensor_type;location;lat;lon;timestamp;P1;durP1;ratioP1;P2;durP2;ratioP2
7573;SDS011;3828;48.922;9.116;2023-01-06T00:02:21;2.70;;;2.50;;
7573;SDS011;3828;48.922;9.116;2023-01-06T00:04:48;4.47;;;2.30;;
7573;SDS011;3828;48.922;9.116;2023-01-06T00:07:15;3.03;;;2.07;;
7573;SDS011;3828;48.922;9.116;2023-01-06T00:09:43;2.30;;;2.20;;
7573;SDS011;3828;48.922;9.116;2023-01-06T00:12:10;2.00;;;1.90;;
7573;SDS011;3828;48.922;9.116;2023-01-06T00:14:37;1.90;;;1.80;;
7573;SDS011;3828;48.922;9.116;2023-01-06T00:17:03;1.90;;;1.80;;
7573;SDS011;3828;48.922;9.116;2023-01-06T00:19:30;2.37;;;2.27;;
7573;SDS011;3828;48.922;9.116;2023-01-06T00:21:57;1.90;;;1.80;;
7573;SDS011;3828;48.922;9.116;2023-01-06T00:24:23;1.80;;;1.70;;
7573;SDS011;3828;48.922;9.116;2023-01-06T00:26:52;1.87;;;1.77;;
7573;SDS011;3828;48.922;9.116;2023-01-06T00:29:20;1.87;;;1.77;;
7573;SDS011;3828;48.922;9.116;2023-01-06T00:31:47;1.60;;;1.60;;
7573;SDS011;3828;48.922;9.116;2023-01-06T00:34:13;1.60;;;1.50;;
7573;SDS011;3828;48.922;9.116;2023-01-06T00:36:40;1.90;;;1.80;;
7573;SDS011;3828;48.922;9.116;2023-01-06T00:39:07;1.83;;;1.73;;
7573;SDS011;3828;48.922;9.116;2023-01-06T00:41:36;1.60;;;1.50;;
7573;SDS011;3828;48.922;9.116;2023-01-06T00:44:21;2.03;;;1.80;;
7573;SDS011;3828;48.922;9.116;2023-01-06T00:46:48;2.10;;;1.50;;
7573;SDS011;3828;48.922;9.116;2023-01-06T00:49:15;1.30;;;1.30;;
7573;SDS011;3828;48.922;9.116;2023-01-06T00:51:42;1.60;;;1.50;;
7573;SDS011;3828;48.922;9.116;2023-01-06T00:54:10;1.63;;;1.53;;
7573;SDS011;3828;48.922;9.116;2023-01-06T00:56:38;1.37;;;1.37;;
7573;SDS011;3828;48.922;9.116;2023-01-06T00:59:06;1.40;;;1.30;;
7573;SDS011;3828;48.922;9.116;2023-01-06T01:01:34;1.10;;;1.10;;
7573;SDS011;3828;48.922;9.116;2023-01-06T01:04:01;1.50;;;1.40;;
7573;SDS011;3828;48.922;9.116;2023-01-06T01:06:28;1.30;;;1.30;;
7573;SDS011;3828;48.922;9.116;2023-01-06T01:08:56;1.10;;;1.10;;
7573;SDS011;3828;48.922;9.116;2023-01-06T01:11:24;1.30;;;1.30;;
7573;SDS011;3828;48.922;9.116;2023-01-06T01:14:09;1.30;;;1.20;;
7573;SDS011;3828;48.922;9.116;2023-01-06T01:16:38;1.00;;;1.00;;
7573;SDS011;3828;48.922;9.116;2023-01-06T01:19:05;1.30;;;1.30;;
7573;SDS011;3828;48.922;9.116;2023-01-06T01:21:33;1.50;;;1.40;;
7573;SDS011;3828;48.922;9.116;2023-01-06T01:24:00;1.63;;;1.40;;
7573;SDS011;3828;48.922;9.116;2023-01-06T01:26:26;1.70;;;1.43;;
7573;SDS011;3828;48.922;9.116;2023-01-06T01:28:53;1.80;;;1.70;;
7573;SDS011;3828;48.922;9.116;2023-01-06T01:31:20;2.33;;;2.13;;
7573;SDS011;3828;48.922;9.116;2023-01-06T01:33:48;1.87;;;1.77;;
7573;SDS011;3828;48.922;9.116;2023-01-06T01:36:15;1.53;;;1.47;;
7573;SDS011;3828;48.922;9.116;2023-01-06T01:38:43;2.87;;;2.67;;
7573;SDS011;3828;48.922;9.116;2023-01-06T01:41:12;1.80;;;1.70;;
7573;SDS011;3828;48.922;9.116;2023-01-06T01:43:44;1.93;;;1.83;;
7573;SDS011;3828;48.922;9.116;2023-01-06T01:46:12;2.23;;;1.80;;
7573;SDS011;3828;48.922;9.116;2023-01-06T01:48:42;2.03;;;1.93;;
7573;SDS011;3828;48.922;9.116;2023-01-06T01:51:12;1.90;;;1.60;;
7573;SDS011;3828;48.922;9.116;2023-01-06T01:53:43;2.00;;;1.90;;
7573;SDS011;3828;48.922;9.116;2023-01-06T01:56:15;2.33;;;2.10;;
7573;SDS011;3828;48.922;9.116;2023-01-06T01:58:47;2.03;;;1.93;;
7573;SDS011;3828;48.922;9.116;2023-01-06T02:01:18;2.47;;;2.10;;
7573;SDS011;3828;48.922;9.116;2023-01-06T02:03:45;2.03;;;1.93;;
7573;SDS011;3828;48.922;9.116;2023-01-06T02:06:14;2.60;;;2.30;;
7573;SDS011;3828;48.922;9.116;2023-01-06T02:08:45;2.10;;;2.00;;
7573;SDS011;3828;48.922;9.116;2023-01-06T02:11:16;2.27;;;2.10;;
7573;SDS011;3828;48.922;9.116;2023-01-06T02:13:44;2.30;;;2.20;;
7573;SDS011;3828;48.922;9.116;2023-01-06T02:16:14;2.00;;;1.90;;
7573;SDS011;3828;48.922;9.116;2023-01-06T02:18:58;2.20;;;1.80;;
7573;SDS011;3828;48.922;9.116;2023-01-06T02:21:35;3.83;;;2.23;;
7573;SDS011;3828;48.922;9.116;2023-01-06T02:24:18;2.53;;;2.00;;
7573;SDS011;3828;48.922;9.116;2023-01-06T02:27:18;3.30;;;2.03;;
7573;SDS011;3828;48.922;9.116;2023-01-06T02:30:18;2.53;;;2.33;;
7573;SDS011;3828;48.922;9.116;2023-01-06T02:33:09;2.27;;;1.80;;
7573;SDS011;3828;48.922;9.116;2023-01-06T02:35:51;2.17;;;2.07;;
7573;SDS011;3828;48.922;9.116;2023-01-06T02:38:29;2.20;;;2.10;;
7573;SDS011;3828;48.922;9.116;2023-01-06T02:41:08;2.40;;;2.10;;
7573;SDS011;3828;48.922;9.116;2023-01-06T02:43:43;2.70;;;2.50;;
7573;SDS011;3828;48.922;9.116;2023-01-06T02:46:21;2.00;;;1.90;;
7573;SDS011;3828;48.922;9.116;2023-01-06T02:48:59;2.37;;;2.17;;
7573;SDS011;3828;48.922;9.116;2023-01-06T02:51:39;1.90;;;1.80;;
7573;SDS011;3828;48.922;9.116;2023-01-06T02:54:13;1.60;;;1.50;;
7573;SDS011;3828;48.922;9.116;2023-01-06T02:56:46;2.20;;;2.00;;
7573;SDS011;3828;48.922;9.116;2023-01-06T02:59:17;1.83;;;1.73;;
7573;SDS011;3828;48.922;9.116;2023-01-06T03:01:50;2.07;;;1.97;;
7573;SDS011;3828;48.922;9.116;2023-01-06T03:04:21;1.73;;;1.63;;
7573;SDS011;3828;48.922;9.116;2023-01-06T03:06:54;1.67;;;1.57;;
7573;SDS011;3828;48.922;9.116;2023-01-06T03:09:26;1.77;;;1.67;;
7573;SDS011;3828;48.922;9.116;2023-01-06T03:11:56;1.70;;;1.60;;
7573;SDS011;3828;48.922;9.116;2023-01-06T03:14:25;1.60;;;1.60;;
7573;SDS011;3828;48.922;9.116;2023-01-06T03:16:54;1.90;;;1.80;;
7573;SDS011;3828;48.922;9.116;2023-01-06T03:19:23;2.13;;;1.53;;
7573;SDS011;3828;48.922;9.116;2023-01-06T03:21:50;1.57;;;1.57;;
7573;SDS011;3828;48.922;9.116;2023-01-06T03:24:17;1.50;;;1.50;;
7573;SDS011;3828;48.922;9.116;2023-01-06T03:26:45;1.50;;;1.40;;
7573;SDS011;3828;48.922;9.116;2023-01-06T03:29:14;1.33;;;1.23;;
7573;SDS011;3828;48.922;9.116;2023-01-06T03:31:46;1.33;;;1.33;;
7573;SDS011;3828;48.922;9.116;2023-01-06T03:34:21;2.00;;;1.40;;
7573;SDS011;3828;48.922;9.116;2023-01-06T03:37:00;1.83;;;1.70;;
7573;SDS011;3828;48.922;9.116;2023-01-06T03:39:35;2.03;;;1.80;;
7573;SDS011;3828;48.922;9.116;2023-01-06T03:42:13;1.63;;;1.53;;
7573;SDS011;3828;48.922;9.116;2023-01-06T03:45:08;1.50;;;1.50;;
7573;SDS011;3828;48.922;9.116;2023-01-06T03:47:47;1.80;;;1.67;;
7573;SDS011;3828;48.922;9.116;2023-01-06T03:50:20;1.43;;;1.40;;
7573;SDS011;3828;48.922;9.116;2023-01-06T03:52:54;1.23;;;1.23;;
7573;SDS011;3828;48.922;9.116;2023-01-06T03:55:25;2.93;;;1.40;;
7573;SDS011;3828;48.922;9.116;2023-01-06T03:57:58;1.50;;;1.50;;
7573;SDS011;3828;48.922;9.116;2023-01-06T04:00:28;1.70;;;1.60;;
7573;SDS011;3828;48.922;9.116;2023-01-06T04:02:57;1.80;;;1.70;;
7573;SDS011;3828;48.922;9.116;2023-01-06T04:05:25;2.27;;;2.10;;
7573;SDS011;3828;48.922;9.116;2023-01-06T04:07:53;2.33;;;2.23;;
7573;SDS011;3828;48.922;9.116;2023-01-06T04:10:21;2.17;;;1.90;;
7573;SDS011;3828;48.922;9.116;2023-01-06T04:12:48;1.47;;;1.47;;
7573;SDS011;3828;48.922;9.116;2023-01-06T04:15:15;2.10;;;2.00;;
7573;SDS011;3828;48.922;9.116;2023-01-06T04:17:44;1.97;;;1.70;;
7573;SDS011;3828;48.922;9.116;2023-01-06T04:20:13;2.20;;;1.90;;
7573;SDS011;3828;48.922;9.116;2023-01-06T04:22:42;2.00;;;1.90;;
7573;SDS011;3828;48.922;9.116;2023-01-06T04:25:09;1.90;;;1.80;;
7573;SDS011;3828;48.922;9.116;2023-01-06T04:27:36;1.90;;;1.80;;
7573;SDS011;3828;48.922;9.116;2023-01-06T04:30:03;2.60;;;1.97;;
7573;SDS011;3828;48.922;9.116;2023-01-06T04:32:31;2.03;;;1.93;;
7573;SDS011;3828;48.922;9.116;2023-01-06T04:34:58;2.10;;;1.93;;
7573;SDS011;3828;48.922;9.116;2023-01-06T04:37:25;1.80;;;1.70;;
7573;SDS011;3828;48.922;9.116;2023-01-06T04:39:53;1.50;;;1.50;;
7573;SDS011;3828;48.922;9.116;2023-01-06T04:42:20;1.90;;;1.80;;
7573;SDS011;3828;48.922;9.116;2023-01-06T04:44:47;1.93;;;1.83;;
7573;SDS011;3828;48.922;9.116;2023-01-06T04:47:13;1.57;;;1.57;;
7573;SDS011;3828;48.922;9.116;2023-01-06T04:49:40;3.47;;;2.00;;
7573;SDS011;3828;48.922;9.116;2023-01-06T04:52:09;2.03;;;1.60;;
7573;SDS011;3828;48.922;9.116;2023-01-06T04:54:36;2.07;;;1.97;;
7573;SDS011;3828;48.922;9.116;2023-01-06T04:57:04;2.00;;;1.90;;
7573;SDS011;3828;48.922;9.116;2023-01-06T04:59:31;1.80;;;1.70;;
7573;SDS011;3828;48.922;9.116;2023-01-06T05:01:58;1.70;;;1.60;;
7573;SDS011;3828;48.922;9.116;2023-01-06T05:04:24;1.80;;;1.70;;
7573;SDS011;3828;48.922;9.116;2023-01-06T05:06:51;1.80;;;1.70;;
7573;SDS011;3828;48.922;9.116;2023-01-06T05:09:18;1.90;;;1.80;;
7573;SDS011;3828;48.922;9.116;2023-01-06T05:11:44;1.50;;;1.40;;
7573;SDS011;3828;48.922;9.116;2023-01-06T05:14:13;1.77;;;1.67;;
7573;SDS011;3828;48.922;9.116;2023-01-06T05:16:39;2.00;;;1.90;;
7573;SDS011;3828;48.922;9.116;2023-01-06T05:19:06;2.10;;;2.00;;
7573;SDS011;3828;48.922;9.116;2023-01-06T05:21:33;1.90;;;1.80;;
7573;SDS011;3828;48.922;9.116;2023-01-06T05:24:00;1.50;;;1.50;;
7573;SDS011;3828;48.922;9.116;2023-01-06T05:26:27;1.70;;;1.60;;
7573;SDS011;3828;48.922;9.116;2023-01-06T05:28:54;2.60;;;1.80;;
7573;SDS011;3828;48.922;9.116;2023-01-06T05:31:22;1.80;;;1.70;;
7573;SDS011;3828;48.922;9.116;2023-01-06T05:33:49;1.73;;;1.63;;
7573;SDS011;3828;48.922;9.116;2023-01-06T05:36:16;1.53;;;1.53;;
7573;SDS011;3828;48.922;9.116;2023-01-06T05:38:49;2.37;;;1.97;;
7573;SDS011;3828;48.922;9.116;2023-01-06T05:41:17;1.60;;;1.50;;
7573;SDS011;3828;48.922;9.116;2023-01-06T05:43:44;1.80;;;1.70;;
7573;SDS011;3828;48.922;9.116;2023-01-06T05:46:11;1.70;;;1.60;;
7573;SDS011;3828;48.922;9.116;2023-01-06T05:48:42;1.70;;;1.60;;
7573;SDS011;3828;48.922;9.116;2023-01-06T05:51:10;2.20;;;2.10;;
7573;SDS011;3828;48.922;9.116;2023-01-06T05:53:39;2.10;;;2.00;;
7573;SDS011;3828;48.922;9.116;2023-01-06T05:56:07;4.57;;;2.30;;
7573;SDS011;3828;48.922;9.116;2023-01-06T05:58:35;2.77;;;2.50;;
7573;SDS011;3828;48.922;9.116;2023-01-06T06:01:04;2.40;;;2.30;;
7573;SDS011;3828;48.922;9.116;2023-01-06T06:03:31;3.00;;;2.80;;
7573;SDS011;3828;48.922;9.116;2023-01-06T06:06:02;2.40;;;2.20;;
7573;SDS011;3828;48.922;9.116;2023-01-06T06:08:29;4.07;;;3.67;;
7573;SDS011;3828;48.922;9.116;2023-01-06T06:11:00;5.33;;;4.83;;
7573;SDS011;3828;48.922;9.116;2023-01-06T06:13:28;7.83;;;7.03;;
7573;SDS011;3828;48.922;9.116;2023-01-06T06:16:01;8.17;;;7.47;;
7573;SDS011;3828;48.922;9.116;2023-01-06T06:18:29;6.30;;;5.70;;
7573;SDS011;3828;48.922;9.116;2023-01-06T06:20:58;3.17;;;2.87;;
7573;SDS011;3828;48.922;9.116;2023-01-06T06:23:28;2.23;;;2.13;;
7573;SDS011;3828;48.922;9.116;2023-01-06T06:25:54;2.23;;;2.13;;
7573;SDS011;3828;48.922;9.116;2023-01-06T06:28:21;2.50;;;2.30;;
7573;SDS011;3828;48.922;9.116;2023-01-06T06:30:48;1.97;;;1.87;;
7573;SDS011;3828;48.922;9.116;2023-01-06T06:33:15;2.80;;;2.60;;
7573;SDS011;3828;48.922;9.116;2023-01-06T06:35:41;2.43;;;2.33;;
7573;SDS011;3828;48.922;9.116;2023-01-06T06:38:08;2.10;;;2.00;;
7573;SDS011;3828;48.922;9.116;2023-01-06T06:40:36;2.10;;;2.00;;
7573;SDS011;3828;48.922;9.116;2023-01-06T06:43:03;3.33;;;1.97;;
7573;SDS011;3828;48.922;9.116;2023-01-06T06:45:30;2.20;;;2.10;;
7573;SDS011;3828;48.922;9.116;2023-01-06T06:47:56;2.00;;;1.90;;
7573;SDS011;3828;48.922;9.116;2023-01-06T06:50:23;2.00;;;1.90;;
7573;SDS011;3828;48.922;9.116;2023-01-06T06:52:50;2.07;;;1.97;;
7573;SDS011;3828;48.922;9.116;2023-01-06T06:55:16;2.30;;;2.20;;
7573;SDS011;3828;48.922;9.116;2023-01-06T06:57:46;2.63;;;2.43;;
7573;SDS011;3828;48.922;9.116;2023-01-06T07:00:13;2.30;;;2.20;;
7573;SDS011;3828;48.922;9.116;2023-01-06T07:02:40;2.30;;;2.13;;
7573;SDS011;3828;48.922;9.116;2023-01-06T07:05:07;2.07;;;1.97;;
7573;SDS011;3828;48.922;9.116;2023-01-06T07:07:34;2.60;;;2.40;;
7573;SDS011;3828;48.922;9.116;2023-01-06T07:10:01;2.30;;;2.10;;
7573;SDS011;3828;48.922;9.116;2023-01-06T07:12:27;4.20;;;3.80;;
7573;SDS011;3828;48.922;9.116;2023-01-06T07:14:55;2.33;;;2.20;;
7573;SDS011;3828;48.922;9.116;2023-01-06T07:17:24;2.43;;;2.00;;
7573;SDS011;3828;48.922;9.116;2023-01-06T07:19:51;2.30;;;2.10;;
7573;SDS011;3828;48.922;9.116;2023-01-06T07:22:18;2.07;;;1.90;;
7573;SDS011;3828;48.922;9.116;2023-01-06T07:24:45;1.90;;;1.80;;
7573;SDS011;3828;48.922;9.116;2023-01-06T07:27:15;1.80;;;1.70;;
7573;SDS011;3828;48.922;9.116;2023-01-06T07:29:42;1.70;;;1.60;;
7573;SDS011;3828;48.922;9.116;2023-01-06T07:32:10;3.13;;;1.87;;
7573;SDS011;3828;48.922;9.116;2023-01-06T07:34:37;2.57;;;1.87;;
7573;SDS011;3828;48.922;9.116;2023-01-06T07:37:05;1.83;;;1.73;;
7573;SDS011;3828;48.922;9.116;2023-01-06T07:39:32;1.63;;;1.53;;
7573;SDS011;3828;48.922;9.116;2023-01-06T07:41:59;2.47;;;2.33;;
7573;SDS011;3828;48.922;9.116;2023-01-06T07:44:26;2.23;;;2.00;;
7573;SDS011;3828;48.922;9.116;2023-01-06T07:46:53;2.27;;;1.70;;
7573;SDS011;3828;48.922;9.116;2023-01-06T07:49:21;2.20;;;2.10;;
7573;SDS011;3828;48.922;9.116;2023-01-06T07:51:49;2.27;;;1.90;;
7573;SDS011;3828;48.922;9.116;2023-01-06T07:54:17;2.07;;;1.50;;
7573;SDS011;3828;48.922;9.116;2023-01-06T07:56:47;2.13;;;2.03;;
7573;SDS011;3828;48.922;9.116;2023-01-06T07:59:23;1.70;;;1.60;;
7573;SDS011;3828;48.922;9.116;2023-01-06T08:01:56;1.50;;;1.50;;
7573;SDS011;3828;48.922;9.116;2023-01-06T08:04:34;1.93;;;1.83;;
7573;SDS011;3828;48.922;9.116;2023-01-06T08:07:04;1.63;;;1.47;;
7573;SDS011;3828;48.922;9.116;2023-01-06T08:09:51;1.60;;;1.50;;
7573;SDS011;3828;48.922;9.116;2023-01-06T08:12:26;1.50;;;1.40;;
7573;SDS011;3828;48.922;9.116;2023-01-06T08:15:00;1.70;;;1.70;;
7573;SDS011;3828;48.922;9.116;2023-01-06T08:17:26;1.60;;;1.60;;
7573;SDS011;3828;48.922;9.116;2023-01-06T08:19:56;2.70;;;1.70;;
7573;SDS011;3828;48.922;9.116;2023-01-06T08:22:23;1.93;;;1.33;;
7573;SDS011;3828;48.922;9.116;2023-01-06T08:24:50;1.60;;;1.50;;
7573;SDS011;3828;48.922;9.116;2023-01-06T08:27:17;2.20;;;1.30;;
7573;SDS011;3828;48.922;9.116;2023-01-06T08:29:44;2.87;;;2.00;;
7573;SDS011;3828;48.922;9.116;2023-01-06T08:32:11;1.67;;;1.57;;
7573;SDS011;3828;48.922;9.116;2023-01-06T08:34:38;1.83;;;1.50;;
7573;SDS011;3828;48.922;9.116;2023-01-06T08:37:07;1.60;;;1.50;;
7573;SDS011;3828;48.922;9.116;2023-01-06T08:39:34;1.53;;;1.43;;
7573;SDS011;3828;48.922;9.116;2023-01-06T08:42:01;1.53;;;1.43;;
7573;SDS011;3828;48.922;9.116;2023-01-06T08:44:28;1.40;;;1.30;;
7573;SDS011;3828;48.922;9.116;2023-01-06T08:46:55;1.40;;;1.30;;
7573;SDS011;3828;48.922;9.116;2023-01-06T08:49:22;1.30;;;1.30;;
7573;SDS011;3828;48.922;9.116;2023-01-06T08:51:48;1.40;;;1.40;;
7573;SDS011;3828;48.922;9.116;2023-01-06T08:54:17;1.40;;;1.30;;
7573;SDS011;3828;48.922;9.116;2023-01-06T08:56:44;2.00;;;1.60;;
7573;SDS011;3828;48.922;9.116;2023-01-06T08:59:11;1.30;;;1.20;;
7573;SDS011;3828;48.922;9.116;2023-01-06T09:01:41;1.40;;;1.30;;
7573;SDS011;3828;48.922;9.116;2023-01-06T09:04:09;2.00;;;1.20;;
7573;SDS011;3828;48.922;9.116;2023-01-06T09:06:38;1.63;;;1.53;;
7573;SDS011;3828;48.922;9.116;2023-01-06T09:09:07;1.70;;;1.60;;
7573;SDS011;3828;48.922;9.116;2023-01-06T09:11:37;1.10;;;1.10;;
7573;SDS011;3828;48.922;9.116;2023-01-06T09:14:06;1.27;;;1.27;;
7573;SDS011;3828;48.922;9.116;2023-01-06T09:16:33;1.30;;;1.20;;
7573;SDS011;3828;48.922;9.116;2023-01-06T09:19:00;1.83;;;1.73;;
7573;SDS011;3828;48.922;9.116;2023-01-06T09:21:27;2.13;;;1.60;;
7573;SDS011;3828;48.922;9.116;2023-01-06T09:23:54;1.83;;;1.73;;
7573;SDS011;3828;48.922;9.116;2023-01-06T09:26:21;2.53;;;2.33;;
7573;SDS011;3828;48.922;9.116;2023-01-06T09:28:49;1.27;;;1.27;;
7573;SDS011;3828;48.922;9.116;2023-01-06T09:31:16;1.10;;;1.10;;
7573;SDS011;3828;48.922;9.116;2023-01-06T09:33:43;1.27;;;1.20;;
7573;SDS011;3828;48.922;9.116;2023-01-06T09:36:10;1.43;;;1.00;;
7573;SDS011;3828;48.922;9.116;2023-01-06T09:38:37;1.03;;;1.03;;
7573;SDS011;3828;48.922;9.116;2023-01-06T09:41:09;1.17;;;1.17;;
7573;SDS011;3828;48.922;9.116;2023-01-06T09:43:49;1.00;;;1.00;;
7573;SDS011;3828;48.922;9.116;2023-01-06T09:46:20;1.13;;;1.13;;
7573;SDS011;3828;48.922;9.116;2023-01-06T09:48:55;1.37;;;1.27;;
7573;SDS011;3828;48.922;9.116;2023-01-06T09:51:25;1.00;;;1.00;;
7573;SDS011;3828;48.922;9.116;2023-01-06T09:53:55;0.90;;;0.90;;
7573;SDS011;3828;48.922;9.116;2023-01-06T09:56:29;0.90;;;0.90;;
7573;SDS011;3828;48.922;9.116;2023-01-06T09:59:00;1.00;;;1.00;;
7573;SDS011;3828;48.922;9.116;2023-01-06T10:01:35;1.20;;;1.10;;
7573;SDS011;3828;48.922;9.116;2023-01-06T10:04:04;1.80;;;1.70;;
7573;SDS011;3828;48.922;9.116;2023-01-06T10:06:32;1.40;;;1.30;;
7573;SDS011;3828;48.922;9.116;2023-01-06T10:09:09;1.37;;;1.37;;
7573;SDS011;3828;48.922;9.116;2023-01-06T10:11:50;1.30;;;1.30;;
7573;SDS011;3828;48.922;9.116;2023-01-06T10:14:27;1.00;;;1.00;;
7573;SDS011;3828;48.922;9.116;2023-01-06T10:17:08;1.20;;;1.20;;
7573;SDS011;3828;48.922;9.116;2023-01-06T10:19:47;1.30;;;1.30;;
7573;SDS011;3828;48.922;9.116;2023-01-06T10:22:25;1.90;;;1.30;;
7573;SDS011;3828;48.922;9.116;2023-01-06T10:24:58;0.90;;;0.90;;
7573;SDS011;3828;48.922;9.116;2023-01-06T10:27:31;1.20;;;1.10;;
7573;SDS011;3828;48.922;9.116;2023-01-06T10:30:03;1.83;;;1.20;;
7573;SDS011;3828;48.922;9.116;2023-01-06T10:32:44;1.07;;;1.07;;
7573;SDS011;3828;48.922;9.116;2023-01-06T10:35:14;1.17;;;1.17;;
7573;SDS011;3828;48.922;9.116;2023-01-06T10:37:46;1.30;;;1.20;;
7573;SDS011;3828;48.922;9.116;2023-01-06T10:40:19;1.30;;;1.20;;
7573;SDS011;3828;48.922;9.116;2023-01-06T10:42:48;1.10;;;1.10;;
7573;SDS011;3828;48.922;9.116;2023-01-06T10:45:27;1.47;;;1.20;;
7573;SDS011;3828;48.922;9.116;2023-01-06T10:47:57;1.00;;;1.00;;
7573;SDS011;3828;48.922;9.116;2023-01-06T10:50:25;1.10;;;1.10;;
7573;SDS011;3828;48.922;9.116;2023-01-06T10:52:52;1.10;;;1.10;;
7573;SDS011;3828;48.922;9.116;2023-01-06T10:55:25;1.20;;;1.20;;
7573;SDS011;3828;48.922;9.116;2023-01-06T10:58:00;1.40;;;1.40;;
7573;SDS011;3828;48.922;9.116;2023-01-06T11:00:37;1.10;;;1.10;;
7573;SDS011;3828;48.922;9.116;2023-01-06T11:03:20;1.40;;;1.20;;
7573;SDS011;3828;48.922;9.116;2023-01-06T11:05:47;1.10;;;1.10;;
7573;SDS011;3828;48.922;9.116;2023-01-06T11:08:24;1.50;;;1.43;;
7573;SDS011;3828;48.922;9.116;2023-01-06T11:10:52;1.30;;;1.30;;
7573;SDS011;3828;48.922;9.116;2023-01-06T11:13:22;1.07;;;1.07;;
7573;SDS011;3828;48.922;9.116;2023-01-06T11:15:53;1.00;;;1.00;;
7573;SDS011;3828;48.922;9.116;2023-01-06T11:18:22;1.00;;;1.00;;
7573;SDS011;3828;48.922;9.116;2023-01-06T11:21:00;1.07;;;1.07;;
7573;SDS011;3828;48.922;9.116;2023-01-06T11:23:29;1.00;;;1.00;;
7573;SDS011;3828;48.922;9.116;2023-01-06T11:26:00;1.10;;;1.10;;
7573;SDS011;3828;48.922;9.116;2023-01-06T11:28:30;1.00;;;1.00;;
7573;SDS011;3828;48.922;9.116;2023-01-06T11:30:59;1.00;;;1.00;;
7573;SDS011;3828;48.922;9.116;2023-01-06T11:33:28;1.10;;;1.10;;
7573;SDS011;3828;48.922;9.116;2023-01-06T11:35:56;1.50;;;1.00;;
7573;SDS011;3828;48.922;9.116;2023-01-06T11:38:27;1.00;;;1.00;;
7573;SDS011;3828;48.922;9.116;2023-01-06T11:40:55;1.00;;;1.00;;
7573;SDS011;3828;48.922;9.116;2023-01-06T11:43:23;1.00;;;1.00;;
7573;SDS011;3828;48.922;9.116;2023-01-06T11:45:56;1.10;;;1.10;;
7573;SDS011;3828;48.922;9.116;2023-01-06T11:48:26;1.73;;;1.60;;
7573;SDS011;3828;48.922;9.116;2023-01-06T11:50:56;0.90;;;0.90;;
7573;SDS011;3828;48.922;9.116;2023-01-06T11:53:25;0.80;;;0.80;;
7573;SDS011;3828;48.922;9.116;2023-01-06T11:55:57;0.97;;;0.97;;
7573;SDS011;3828;48.922;9.116;2023-01-06T11:58:30;0.90;;;0.90;;
7573;SDS011;3828;48.922;9.116;2023-01-06T12:01:16;0.90;;;0.90;;
7573;SDS011;3828;48.922;9.116;2023-01-06T12:03:51;1.00;;;1.00;;
7573;SDS011;3828;48.922;9.116;2023-01-06T12:06:26;0.90;;;0.90;;
7573;SDS011;3828;48.922;9.116;2023-01-06T12:08:57;1.13;;;1.10;;
7573;SDS011;3828;48.922;9.116;2023-01-06T12:11:29;1.30;;;1.20;;
7573;SDS011;3828;48.922;9.116;2023-01-06T12:14:04;1.13;;;1.00;;
7573;SDS011;3828;48.922;9.116;2023-01-06T12:16:41;1.57;;;1.47;;
7573;SDS011;3828;48.922;9.116;2023-01-06T12:19:16;1.00;;;1.00;;
7573;SDS011;3828;48.922;9.116;2023-01-06T12:21:47;1.40;;;1.40;;
7573;SDS011;3828;48.922;9.116;2023-01-06T12:24:15;1.00;;;1.00;;
7573;SDS011;3828;48.922;9.116;2023-01-06T12:26:44;1.10;;;1.10;;
7573;SDS011;3828;48.922;9.116;2023-01-06T12:29:13;1.00;;;1.00;;
7573;SDS011;3828;48.922;9.116;2023-01-06T12:31:46;1.00;;;1.00;;
7573;SDS011;3828;48.922;9.116;2023-01-06T12:34:21;1.23;;;1.23;;
7573;SDS011;3828;48.922;9.116;2023-01-06T12:36:54;1.10;;;1.00;;
7573;SDS011;3828;48.922;9.116;2023-01-06T12:39:29;1.80;;;1.10;;
7573;SDS011;3828;48.922;9.116;2023-01-06T12:42:06;1.20;;;1.10;;
7573;SDS011;3828;48.922;9.116;2023-01-06T12:44:42;1.23;;;1.10;;
7573;SDS011;3828;48.922;9.116;2023-01-06T12:47:16;1.10;;;1.10;;
7573;SDS011;3828;48.922;9.116;2023-01-06T12:49:49;1.07;;;1.07;;
7573;SDS011;3828;48.922;9.116;2023-01-06T12:52:22;1.00;;;1.00;;
7573;SDS011;3828;48.922;9.116;2023-01-06T12:54:52;1.00;;;1.00;;
7573;SDS011;3828;48.922;9.116;2023-01-06T12:57:26;3.60;;;1.20;;
7573;SDS011;3828;48.922;9.116;2023-01-06T13:00:20;1.10;;;1.10;;
7573;SDS011;3828;48.922;9.116;2023-01-06T13:03:02;1.20;;;1.10;;
7573;SDS011;3828;48.922;9.116;2023-01-06T13:05:49;1.27;;;1.17;;
7573;SDS011;3828;48.922;9.116;2023-01-06T13:08:30;1.60;;;1.50;;
7573;SDS011;3828;48.922;9.116;2023-01-06T13:11:11;1.27;;;1.23;;
7573;SDS011;3828;48.922;9.116;2023-01-06T13:13:47;1.20;;;1.20;;
7573;SDS011;3828;48.922;9.116;2023-01-06T13:16:23;1.07;;;1.07;;
7573;SDS011;3828;48.922;9.116;2023-01-06T13:19:02;1.30;;;1.20;;
7573;SDS011;3828;48.922;9.116;2023-01-06T13:21:39;1.10;;;1.10;;
7573;SDS011;3828;48.922;9.116;2023-01-06T13:24:12;1.20;;;1.07;;
7573;SDS011;3828;48.922;9.116;2023-01-06T13:26:50;1.13;;;1.13;;
7573;SDS011;3828;48.922;9.116;2023-01-06T13:29:34;1.27;;;1.27;;
7573;SDS011;3828;48.922;9.116;2023-01-06T13:32:24;2.00;;;1.90;;
7573;SDS011;3828;48.922;9.116;2023-01-06T13:38:05;3.23;;;1.27;;
7573;SDS011;3828;48.922;9.116;2023-01-06T13:40:43;1.20;;;1.20;;
7573;SDS011;3828;48.922;9.116;2023-01-06T13:43:13;1.67;;;1.30;;
7573;SDS011;3828;48.922;9.116;2023-01-06T13:45:47;1.03;;;1.03;;
7573;SDS011;3828;48.922;9.116;2023-01-06T13:48:17;1.67;;;1.37;;
7573;SDS011;3828;48.922;9.116;2023-01-06T13:50:47;1.60;;;1.50;;
7573;SDS011;3828;48.922;9.116;2023-01-06T13:53:18;1.50;;;1.40;;
7573;SDS011;3828;48.922;9.116;2023-01-06T13:55:47;1.70;;;1.60;;
7573;SDS011;3828;48.922;9.116;2023-01-06T13:58:35;1.80;;;1.67;;
7573;SDS011;3828;48.922;9.116;2023-01-06T14:01:03;2.50;;;2.30;;
7573;SDS011;3828;48.922;9.116;2023-01-06T14:03:31;2.00;;;1.40;;
7573;SDS011;3828;48.922;9.116;2023-01-06T14:05:58;2.07;;;1.37;;
7573;SDS011;3828;48.922;9.116;2023-01-06T14:08:29;1.60;;;1.50;;
7573;SDS011;3828;48.922;9.116;2023-01-06T14:10:59;1.73;;;1.63;;
7573;SDS011;3828;48.922;9.116;2023-01-06T14:13:29;1.50;;;1.40;;
7573;SDS011;3828;48.922;9.116;2023-01-06T14:16:08;1.47;;;1.47;;
7573;SDS011;3828;48.922;9.116;2023-01-06T14:18:40;1.40;;;1.40;;
7573;SDS011;3828;48.922;9.116;2023-01-06T14:21:16;1.43;;;1.43;;
7573;SDS011;3828;48.922;9.116;2023-01-06T14:23:52;1.50;;;1.40;;
7573;SDS011;3828;48.922;9.116;2023-01-06T14:26:50;1.30;;;1.30;;
7573;SDS011;3828;48.922;9.116;2023-01-06T14:35:11;1.30;;;1.30;;
7573;SDS011;3828;48.922;9.116;2023-01-06T14:37:43;1.63;;;1.50;;
7573;SDS011;3828;48.922;9.116;2023-01-06T14:40:20;1.53;;;1.47;;
7573;SDS011;3828;48.922;9.116;2023-01-06T14:42:49;1.47;;;1.47;;
7573;SDS011;3828;48.922;9.116;2023-01-06T14:45:20;1.20;;;1.20;;
7573;SDS011;3828;48.922;9.116;2023-01-06T14:47:50;1.30;;;1.30;;
7573;SDS011;3828;48.922;9.116;2023-01-06T14:50:21;2.10;;;1.10;;
7573;SDS011;3828;48.922;9.116;2023-01-06T14:52:52;3.40;;;1.40;;
7573;SDS011;3828;48.922;9.116;2023-01-06T14:55:24;1.13;;;1.13;;
7573;SDS011;3828;48.922;9.116;2023-01-06T14:57:53;1.20;;;1.20;;
7573;SDS011;3828;48.922;9.116;2023-01-06T15:00:20;1.67;;;1.33;;
7573;SDS011;3828;48.922;9.116;2023-01-06T15:02:49;1.63;;;1.53;;
7573;SDS011;3828;48.922;9.116;2023-01-06T15:05:18;1.30;;;1.30;;
7573;SDS011;3828;48.922;9.116;2023-01-06T15:07:57;1.30;;;1.30;;
7573;SDS011;3828;48.922;9.116;2023-01-06T15:10:28;5.97;;;4.63;;
7573;SDS011;3828;48.922;9.116;2023-01-06T15:12:57;2.37;;;2.17;;
7573;SDS011;3828;48.922;9.116;2023-01-06T15:15:25;1.20;;;1.20;;
7573;SDS011;3828;48.922;9.116;2023-01-06T15:17:56;1.33;;;1.23;;
7573;SDS011;3828;48.922;9.116;2023-01-06T15:20:26;1.50;;;1.40;;
7573;SDS011;3828;48.922;9.116;2023-01-06T15:22:56;1.33;;;1.23;;
7573;SDS011;3828;48.922;9.116;2023-01-06T15:25:24;1.50;;;1.40;;
7573;SDS011;3828;48.922;9.116;2023-01-06T15:27:54;1.50;;;1.20;;
7573;SDS011;3828;48.922;9.116;2023-01-06T15:30:22;1.40;;;1.40;;
7573;SDS011;3828;48.922;9.116;2023-01-06T15:32:58;1.57;;;1.47;;
7573;SDS011;3828;48.922;9.116;2023-01-06T15:35:27;1.30;;;1.30;;
7573;SDS011;3828;48.922;9.116;2023-01-06T15:37:58;1.77;;;1.67;;
7573;SDS011;3828;48.922;9.116;2023-01-06T15:40:28;1.50;;;1.40;;
7573;SDS011;3828;48.922;9.116;2023-01-06T15:42:56;1.50;;;1.40;;
7573;SDS011;3828;48.922;9.116;2023-01-06T15:45:27;1.57;;;1.47;;
7573;SDS011;3828;48.922;9.116;2023-01-06T15:47:56;1.30;;;1.30;;